sensor_id;sensor_type;location;lat;lon;timestamp;P1;durP1;ratioP1;P2;durP2;ratioP2
7003;SDS011;3542;48.812;9.146;2023-05-07T00:00:44;7.50;;;4.80;;
7003;SDS011;3542;48.812;9.146;2023-05-07T00:03:10;5.67;;;5.17;;
7003;SDS011;3542;48.812;9.146;2023-05-07T00:05:36;9.57;;;4.97;;
7003;SDS011;3542;48.812;9.146;2023-05-07T00:08:02;7.13;;;5.17;;
7003;SDS011;3542;48.812;9.146;2023-05-07T00:10:28;8.80;;;4.80;;
7003;SDS011;3542;48.812;9.146;2023-05-07T00:12:54;5.53;;;5.00;;
7003;SDS011;3542;48.812;9.146;2023-05-07T00:15:19;4.80;;;4.40;;
7003;SDS011;3542;48.812;9.146;2023-05-07T00:17:45;5.10;;;4.53;;
7003;SDS011;3542;48.812;9.146;2023-05-07T00:20:10;6.23;;;5.07;;
7003;SDS011;3542;48.812;9.146;2023-05-07T00:22:36;10.00;;;5.20;;
7003;SDS011;3542;48.812;9.146;2023-05-07T00:25:02;7.83;;;5.10;;
7003;SDS011;3542;48.812;9.146;2023-05-07T00:27:28;8.73;;;4.73;;
7003;SDS011;3542;48.812;9.146;2023-05-07T00:29:54;4.80;;;4.30;;
7003;SDS011;3542;48.812;9.146;2023-05-07T00:32:19;4.77;;;4.27;;
7003;SDS011;3542;48.812;9.146;2023-05-07T00:34:45;7.97;;;4.43;;
7003;SDS011;3542;48.812;9.146;2023-05-07T00:37:10;4.70;;;4.30;;
7003;SDS011;3542;48.812;9.146;2023-05-07T00:39:36;5.20;;;4.70;;
7003;SDS011;3542;48.812;9.146;2023-05-07T00:42:02;10.10;;;4.83;;
7003;SDS011;3542;48.812;9.146;2023-05-07T00:44:28;6.70;;;5.23;;
7003;SDS011;3542;48.812;9.146;2023-05-07T00:46:54;5.43;;;4.33;;
7003;SDS011;3542;48.812;9.146;2023-05-07T00:49:22;6.10;;;4.93;;
7003;SDS011;3542;48.812;9.146;2023-05-07T00:52:03;6.20;;;4.40;;
7003;SDS011;3542;48.812;9.146;2023-05-07T00:54:28;6.03;;;3.80;;
7003;SDS011;3542;48.812;9.146;2023-05-07T00:56:54;5.30;;;4.60;;
7003;SDS011;3542;48.812;9.146;2023-05-07T00:59:20;6.77;;;5.00;;
7003;SDS011;3542;48.812;9.146;2023-05-07T02:32:23;4.90;;;4.50;;
7003;SDS011;3542;48.812;9.146;2023-05-07T02:34:50;3.90;;;3.70;;
7003;SDS011;3542;48.812;9.146;2023-05-07T02:37:17;5.97;;;4.30;;
7003;SDS011;3542;48.812;9.146;2023-05-07T02:39:45;5.20;;;4.07;;
7003;SDS011;3542;48.812;9.146;2023-05-07T02:42:11;4.67;;;4.27;;
7003;SDS011;3542;48.812;9.146;2023-05-07T02:44:37;5.20;;;4.70;;
7003;SDS011;3542;48.812;9.146;2023-05-07T02:47:03;6.50;;;5.00;;
7003;SDS011;3542;48.812;9.146;2023-05-07T02:49:29;5.83;;;5.23;;
7003;SDS011;3542;48.812;9.146;2023-05-07T02:51:55;5.90;;;4.90;;
7003;SDS011;3542;48.812;9.146;2023-05-07T02:54:21;10.90;;;4.57;;
7003;SDS011;3542;48.812;9.146;2023-05-07T02:56:47;4.57;;;4.13;;
7003;SDS011;3542;48.812;9.146;2023-05-07T02:59:13;5.00;;;4.40;;
7003;SDS011;3542;48.812;9.146;2023-05-07T03:01:38;5.73;;;4.97;;
7003;SDS011;3542;48.812;9.146;2023-05-07T03:04:04;5.60;;;5.10;;
7003;SDS011;3542;48.812;9.146;2023-05-07T03:06:30;7.50;;;4.70;;
7003;SDS011;3542;48.812;9.146;2023-05-07T03:08:56;11.30;;;5.83;;
7003;SDS011;3542;48.812;9.146;2023-05-07T03:11:21;10.30;;;4.40;;
7003;SDS011;3542;48.812;9.146;2023-05-07T03:13:47;5.30;;;4.43;;
7003;SDS011;3542;48.812;9.146;2023-05-07T03:16:14;5.63;;;5.13;;
7003;SDS011;3542;48.812;9.146;2023-05-07T03:18:40;4.97;;;4.57;;
7003;SDS011;3542;48.812;9.146;2023-05-07T03:21:06;6.30;;;4.77;;
7003;SDS011;3542;48.812;9.146;2023-05-07T03:23:31;8.17;;;4.80;;
7003;SDS011;3542;48.812;9.146;2023-05-07T03:25:57;6.77;;;5.53;;
7003;SDS011;3542;48.812;9.146;2023-05-07T03:28:22;4.73;;;4.30;;
7003;SDS011;3542;48.812;9.146;2023-05-07T03:30:48;4.80;;;4.10;;
7003;SDS011;3542;48.812;9.146;2023-05-07T03:33:13;4.90;;;4.57;;
7003;SDS011;3542;48.812;9.146;2023-05-07T03:35:39;6.20;;;4.97;;
7003;SDS011;3542;48.812;9.146;2023-05-07T03:38:05;5.50;;;4.37;;
7003;SDS011;3542;48.812;9.146;2023-05-07T03:40:30;5.27;;;4.70;;
7003;SDS011;3542;48.812;9.146;2023-05-07T03:42:56;5.67;;;4.77;;
7003;SDS011;3542;48.812;9.146;2023-05-07T03:45:21;5.27;;;4.77;;
7003;SDS011;3542;48.812;9.146;2023-05-07T03:47:47;6.40;;;4.50;;
7003;SDS011;3542;48.812;9.146;2023-05-07T03:50:12;5.47;;;4.90;;
7003;SDS011;3542;48.812;9.146;2023-05-07T03:52:38;5.20;;;4.70;;
7003;SDS011;3542;48.812;9.146;2023-05-07T03:55:03;5.50;;;4.97;;
7003;SDS011;3542;48.812;9.146;2023-05-07T03:57:29;5.00;;;4.60;;
7003;SDS011;3542;48.812;9.146;2023-05-07T03:59:54;5.27;;;4.77;;
7003;SDS011;3542;48.812;9.146;2023-05-07T04:02:20;7.57;;;5.90;;
7003;SDS011;3542;48.812;9.146;2023-05-07T04:04:45;4.77;;;4.37;;
7003;SDS011;3542;48.812;9.146;2023-05-07T04:07:13;8.20;;;5.30;;
7003;SDS011;3542;48.812;9.146;2023-05-07T04:09:39;4.80;;;4.23;;
7003;SDS011;3542;48.812;9.146;2023-05-07T04:12:05;9.10;;;5.07;;
7003;SDS011;3542;48.812;9.146;2023-05-07T04:14:31;8.60;;;5.73;;
7003;SDS011;3542;48.812;9.146;2023-05-07T04:16:57;8.47;;;4.87;;
7003;SDS011;3542;48.812;9.146;2023-05-07T04:19:23;10.70;;;4.40;;
7003;SDS011;3542;48.812;9.146;2023-05-07T04:21:49;5.00;;;4.50;;
7003;SDS011;3542;48.812;9.146;2023-05-07T04:24:15;5.00;;;4.60;;
7003;SDS011;3542;48.812;9.146;2023-05-07T04:26:40;6.17;;;4.70;;
7003;SDS011;3542;48.812;9.146;2023-05-07T04:29:06;4.90;;;4.50;;
7003;SDS011;3542;48.812;9.146;2023-05-07T04:31:31;4.70;;;4.30;;
7003;SDS011;3542;48.812;9.146;2023-05-07T04:33:57;4.53;;;4.10;;
7003;SDS011;3542;48.812;9.146;2023-05-07T04:36:22;8.07;;;5.10;;
7003;SDS011;3542;48.812;9.146;2023-05-07T04:38:52;5.50;;;5.00;;
7003;SDS011;3542;48.812;9.146;2023-05-07T04:41:18;5.37;;;4.47;;
7003;SDS011;3542;48.812;9.146;2023-05-07T04:43:44;5.40;;;4.90;;
7003;SDS011;3542;48.812;9.146;2023-05-07T04:46:10;4.60;;;4.20;;
7003;SDS011;3542;48.812;9.146;2023-05-07T04:48:36;4.63;;;4.30;;
7003;SDS011;3542;48.812;9.146;2023-05-07T04:51:01;4.70;;;4.30;;
7003;SDS011;3542;48.812;9.146;2023-05-07T04:53:27;4.80;;;4.40;;
7003;SDS011;3542;48.812;9.146;2023-05-07T04:55:56;5.47;;;4.13;;
7003;SDS011;3542;48.812;9.146;2023-05-07T04:58:22;5.50;;;4.70;;
7003;SDS011;3542;48.812;9.146;2023-05-07T05:00:48;6.70;;;5.13;;
7003;SDS011;3542;48.812;9.146;2023-05-07T05:03:13;5.47;;;5.00;;
7003;SDS011;3542;48.812;9.146;2023-05-07T05:05:39;6.37;;;5.10;;
7003;SDS011;3542;48.812;9.146;2023-05-07T05:08:04;5.70;;;4.50;;
7003;SDS011;3542;48.812;9.146;2023-05-07T05:10:30;5.03;;;4.63;;
7003;SDS011;3542;48.812;9.146;2023-05-07T05:12:55;5.67;;;5.17;;
7003;SDS011;3542;48.812;9.146;2023-05-07T05:15:21;8.13;;;4.70;;
7003;SDS011;3542;48.812;9.146;2023-05-07T05:17:47;6.53;;;5.07;;
7003;SDS011;3542;48.812;9.146;2023-05-07T05:20:12;4.73;;;4.33;;
7003;SDS011;3542;48.812;9.146;2023-05-07T05:22:38;5.30;;;4.83;;
7003;SDS011;3542;48.812;9.146;2023-05-07T05:25:04;6.10;;;5.50;;
7003;SDS011;3542;48.812;9.146;2023-05-07T05:27:29;8.83;;;6.03;;
7003;SDS011;3542;48.812;9.146;2023-05-07T05:29:55;6.13;;;4.60;;
7003;SDS011;3542;48.812;9.146;2023-05-07T05:32:20;7.53;;;4.30;;
7003;SDS011;3542;48.812;9.146;2023-05-07T05:34:46;5.03;;;4.50;;
7003;SDS011;3542;48.812;9.146;2023-05-07T05:37:12;4.20;;;3.80;;
7003;SDS011;3542;48.812;9.146;2023-05-07T05:39:37;4.17;;;3.87;;
7003;SDS011;3542;48.812;9.146;2023-05-07T05:42:03;8.53;;;3.90;;
7003;SDS011;3542;48.812;9.146;2023-05-07T05:44:28;4.77;;;3.80;;
7003;SDS011;3542;48.812;9.146;2023-05-07T05:46:54;5.90;;;5.00;;
7003;SDS011;3542;48.812;9.146;2023-05-07T05:49:20;4.47;;;4.17;;
7003;SDS011;3542;48.812;9.146;2023-05-07T05:51:46;5.10;;;4.17;;
7003;SDS011;3542;48.812;9.146;2023-05-07T05:54:12;4.33;;;3.93;;
7003;SDS011;3542;48.812;9.146;2023-05-07T05:56:37;5.43;;;4.50;;
7003;SDS011;3542;48.812;9.146;2023-05-07T05:59:03;5.83;;;5.20;;
7003;SDS011;3542;48.812;9.146;2023-05-07T06:01:29;7.73;;;5.20;;
7003;SDS011;3542;48.812;9.146;2023-05-07T06:03:54;4.40;;;4.00;;
7003;SDS011;3542;48.812;9.146;2023-05-07T06:06:20;6.30;;;4.80;;
7003;SDS011;3542;48.812;9.146;2023-05-07T06:08:46;5.90;;;5.30;;
7003;SDS011;3542;48.812;9.146;2023-05-07T06:11:11;5.53;;;4.97;;
7003;SDS011;3542;48.812;9.146;2023-05-07T06:13:37;6.17;;;5.40;;
7003;SDS011;3542;48.812;9.146;2023-05-07T06:16:02;8.20;;;5.40;;
7003;SDS011;3542;48.812;9.146;2023-05-07T06:18:28;6.87;;;6.00;;
7003;SDS011;3542;48.812;9.146;2023-05-07T06:20:54;6.90;;;5.63;;
7003;SDS011;3542;48.812;9.146;2023-05-07T06:23:19;6.70;;;6.00;;
7003;SDS011;3542;48.812;9.146;2023-05-07T06:25:48;5.97;;;5.40;;
7003;SDS011;3542;48.812;9.146;2023-05-07T06:28:17;8.03;;;5.37;;
7003;SDS011;3542;48.812;9.146;2023-05-07T06:30:43;6.70;;;6.10;;
7003;SDS011;3542;48.812;9.146;2023-05-07T06:33:08;5.60;;;5.10;;
7003;SDS011;3542;48.812;9.146;2023-05-07T06:35:34;6.77;;;5.53;;
7003;SDS011;3542;48.812;9.146;2023-05-07T06:38:00;6.50;;;5.40;;
7003;SDS011;3542;48.812;9.146;2023-05-07T06:40:26;5.87;;;5.33;;
7003;SDS011;3542;48.812;9.146;2023-05-07T06:42:51;6.17;;;5.60;;
7003;SDS011;3542;48.812;9.146;2023-05-07T06:45:17;6.33;;;5.10;;
7003;SDS011;3542;48.812;9.146;2023-05-07T06:47:42;5.80;;;5.20;;
7003;SDS011;3542;48.812;9.146;2023-05-07T06:50:08;5.33;;;4.83;;
7003;SDS011;3542;48.812;9.146;2023-05-07T06:52:34;5.03;;;4.57;;
7003;SDS011;3542;48.812;9.146;2023-05-07T06:55:00;7.10;;;4.77;;
7003;SDS011;3542;48.812;9.146;2023-05-07T06:57:26;6.70;;;4.53;;
7003;SDS011;3542;48.812;9.146;2023-05-07T06:59:51;5.50;;;4.20;;
7003;SDS011;3542;48.812;9.146;2023-05-07T07:02:17;4.70;;;4.40;;
7003;SDS011;3542;48.812;9.146;2023-05-07T07:04:42;5.00;;;4.20;;
7003;SDS011;3542;48.812;9.146;2023-05-07T07:07:09;4.83;;;4.33;;
7003;SDS011;3542;48.812;9.146;2023-05-07T07:09:35;6.40;;;4.73;;
7003;SDS011;3542;48.812;9.146;2023-05-07T07:12:00;5.17;;;4.67;;
7003;SDS011;3542;48.812;9.146;2023-05-07T07:14:26;4.50;;;4.20;;
7003;SDS011;3542;48.812;9.146;2023-05-07T07:16:52;7.30;;;4.03;;
7003;SDS011;3542;48.812;9.146;2023-05-07T07:19:17;10.43;;;4.60;;
7003;SDS011;3542;48.812;9.146;2023-05-07T07:21:43;5.07;;;4.30;;
7003;SDS011;3542;48.812;9.146;2023-05-07T07:24:09;4.10;;;3.50;;
7003;SDS011;3542;48.812;9.146;2023-05-07T07:26:35;4.40;;;3.67;;
7003;SDS011;3542;48.812;9.146;2023-05-07T07:29:00;4.43;;;4.00;;
7003;SDS011;3542;48.812;9.146;2023-05-07T07:31:26;3.57;;;3.37;;
7003;SDS011;3542;48.812;9.146;2023-05-07T07:33:51;4.57;;;3.80;;
7003;SDS011;3542;48.812;9.146;2023-05-07T07:36:17;4.10;;;3.70;;
7003;SDS011;3542;48.812;9.146;2023-05-07T07:38:42;6.27;;;3.70;;
7003;SDS011;3542;48.812;9.146;2023-05-07T07:41:08;3.63;;;3.33;;
7003;SDS011;3542;48.812;9.146;2023-05-07T07:43:34;3.57;;;3.03;;
7003;SDS011;3542;48.812;9.146;2023-05-07T07:46:00;6.23;;;3.50;;
7003;SDS011;3542;48.812;9.146;2023-05-07T07:48:26;6.10;;;3.93;;
7003;SDS011;3542;48.812;9.146;2023-05-07T07:50:51;4.23;;;3.73;;
7003;SDS011;3542;48.812;9.146;2023-05-07T07:53:17;3.50;;;3.17;;
7003;SDS011;3542;48.812;9.146;2023-05-07T07:55:43;4.20;;;3.80;;
7003;SDS011;3542;48.812;9.146;2023-05-07T07:58:09;4.93;;;4.20;;
7003;SDS011;3542;48.812;9.146;2023-05-07T08:00:34;3.97;;;3.63;;
7003;SDS011;3542;48.812;9.146;2023-05-07T08:03:00;3.70;;;3.40;;
7003;SDS011;3542;48.812;9.146;2023-05-07T08:05:26;6.73;;;3.90;;
7003;SDS011;3542;48.812;9.146;2023-05-07T08:07:51;5.17;;;4.50;;
7003;SDS011;3542;48.812;9.146;2023-05-07T08:10:18;12.00;;;4.47;;
7003;SDS011;3542;48.812;9.146;2023-05-07T08:12:50;4.67;;;4.27;;
7003;SDS011;3542;48.812;9.146;2023-05-07T08:15:16;4.07;;;3.73;;
7003;SDS011;3542;48.812;9.146;2023-05-07T08:17:42;5.33;;;3.90;;
7003;SDS011;3542;48.812;9.146;2023-05-07T08:20:08;5.63;;;4.30;;
7003;SDS011;3542;48.812;9.146;2023-05-07T08:22:34;4.60;;;4.00;;
7003;SDS011;3542;48.812;9.146;2023-05-07T08:25:01;5.50;;;4.50;;
7003;SDS011;3542;48.812;9.146;2023-05-07T08:27:27;5.30;;;4.60;;
7003;SDS011;3542;48.812;9.146;2023-05-07T08:29:53;6.33;;;3.60;;
7003;SDS011;3542;48.812;9.146;2023-05-07T08:32:18;4.20;;;3.40;;
7003;SDS011;3542;48.812;9.146;2023-05-07T08:34:44;4.37;;;3.97;;
7003;SDS011;3542;48.812;9.146;2023-05-07T08:37:09;4.27;;;3.53;;
7003;SDS011;3542;48.812;9.146;2023-05-07T08:39:35;5.07;;;3.83;;
7003;SDS011;3542;48.812;9.146;2023-05-07T08:42:00;4.60;;;4.13;;
7003;SDS011;3542;48.812;9.146;2023-05-07T08:44:28;5.50;;;3.47;;
7003;SDS011;3542;48.812;9.146;2023-05-07T08:46:59;5.00;;;3.47;;
7003;SDS011;3542;48.812;9.146;2023-05-07T08:49:27;3.37;;;2.60;;
7003;SDS011;3542;48.812;9.146;2023-05-07T08:51:53;3.60;;;2.77;;
7003;SDS011;3542;48.812;9.146;2023-05-07T08:54:20;3.40;;;3.20;;
7003;SDS011;3542;48.812;9.146;2023-05-07T08:56:46;3.53;;;2.97;;
7003;SDS011;3542;48.812;9.146;2023-05-07T08:59:13;3.83;;;3.07;;
7003;SDS011;3542;48.812;9.146;2023-05-07T09:01:39;3.90;;;3.20;;
7003;SDS011;3542;48.812;9.146;2023-05-07T09:04:04;2.50;;;2.33;;
7003;SDS011;3542;48.812;9.146;2023-05-07T09:06:31;5.40;;;2.67;;
7003;SDS011;3542;48.812;9.146;2023-05-07T09:08:57;2.27;;;2.10;;
7003;SDS011;3542;48.812;9.146;2023-05-07T09:11:26;6.93;;;2.83;;
7003;SDS011;3542;48.812;9.146;2023-05-07T09:13:53;6.07;;;3.00;;
7003;SDS011;3542;48.812;9.146;2023-05-07T09:16:21;2.77;;;2.47;;
7003;SDS011;3542;48.812;9.146;2023-05-07T09:18:48;2.40;;;2.07;;
7003;SDS011;3542;48.812;9.146;2023-05-07T09:21:17;3.40;;;2.03;;
7003;SDS011;3542;48.812;9.146;2023-05-07T09:23:43;2.70;;;2.50;;
7003;SDS011;3542;48.812;9.146;2023-05-07T09:26:09;2.47;;;2.23;;
7003;SDS011;3542;48.812;9.146;2023-05-07T09:28:40;2.03;;;1.90;;
7003;SDS011;3542;48.812;9.146;2023-05-07T09:31:09;2.80;;;2.60;;
7003;SDS011;3542;48.812;9.146;2023-05-07T09:33:36;2.90;;;2.70;;
7003;SDS011;3542;48.812;9.146;2023-05-07T09:36:02;2.20;;;2.10;;
7003;SDS011;3542;48.812;9.146;2023-05-07T09:38:29;1.70;;;1.70;;
7003;SDS011;3542;48.812;9.146;2023-05-07T09:41:06;2.40;;;2.10;;
7003;SDS011;3542;48.812;9.146;2023-05-07T09:43:34;2.87;;;2.60;;
7003;SDS011;3542;48.812;9.146;2023-05-07T09:46:07;4.70;;;1.93;;
7003;SDS011;3542;48.812;9.146;2023-05-07T09:48:39;3.67;;;2.60;;
7003;SDS011;3542;48.812;9.146;2023-05-07T09:51:22;2.93;;;2.27;;
7003;SDS011;3542;48.812;9.146;2023-05-07T09:53:53;4.10;;;2.20;;
7003;SDS011;3542;48.812;9.146;2023-05-07T09:56:19;4.20;;;3.10;;
7003;SDS011;3542;48.812;9.146;2023-05-07T09:58:46;3.73;;;1.97;;
7003;SDS011;3542;48.812;9.146;2023-05-07T10:01:11;4.27;;;2.10;;
7003;SDS011;3542;48.812;9.146;2023-05-07T10:03:39;5.00;;;2.00;;
7003;SDS011;3542;48.812;9.146;2023-05-07T10:06:08;2.67;;;1.67;;
7003;SDS011;3542;48.812;9.146;2023-05-07T10:08:34;2.37;;;2.20;;
7003;SDS011;3542;48.812;9.146;2023-05-07T10:11:01;7.60;;;2.10;;
7003;SDS011;3542;48.812;9.146;2023-05-07T10:13:28;2.27;;;2.10;;
7003;SDS011;3542;48.812;9.146;2023-05-07T10:15:54;2.30;;;1.60;;
7003;SDS011;3542;48.812;9.146;2023-05-07T10:18:21;1.80;;;1.70;;
7003;SDS011;3542;48.812;9.146;2023-05-07T10:20:48;5.90;;;2.03;;
7003;SDS011;3542;48.812;9.146;2023-05-07T10:23:17;3.30;;;2.13;;
7003;SDS011;3542;48.812;9.146;2023-05-07T10:25:47;9.13;;;2.10;;
7003;SDS011;3542;48.812;9.146;2023-05-07T10:28:13;4.30;;;1.73;;
7003;SDS011;3542;48.812;9.146;2023-05-07T10:33:26;2.50;;;1.70;;
7003;SDS011;3542;48.812;9.146;2023-05-07T10:35:55;2.13;;;2.03;;
7003;SDS011;3542;48.812;9.146;2023-05-07T10:38:24;1.93;;;1.83;;
7003;SDS011;3542;48.812;9.146;2023-05-07T10:40:50;2.37;;;1.73;;
7003;SDS011;3542;48.812;9.146;2023-05-07T10:43:16;2.10;;;2.00;;
7003;SDS011;3542;48.812;9.146;2023-05-07T10:45:41;3.83;;;2.03;;
7003;SDS011;3542;48.812;9.146;2023-05-07T10:48:11;2.37;;;2.20;;
7003;SDS011;3542;48.812;9.146;2023-05-07T10:50:38;2.30;;;2.10;;
7003;SDS011;3542;48.812;9.146;2023-05-07T10:53:20;2.30;;;2.00;;
7003;SDS011;3542;48.812;9.146;2023-05-07T10:55:47;3.20;;;2.63;;
7003;SDS011;3542;48.812;9.146;2023-05-07T10:58:23;1.90;;;1.80;;
7003;SDS011;3542;48.812;9.146;2023-05-07T11:00:55;2.60;;;2.37;;
7003;SDS011;3542;48.812;9.146;2023-05-07T11:03:25;2.40;;;2.20;;
7003;SDS011;3542;48.812;9.146;2023-05-07T11:11:43;2.63;;;2.43;;
7003;SDS011;3542;48.812;9.146;2023-05-07T11:14:13;2.13;;;2.00;;
7003;SDS011;3542;48.812;9.146;2023-05-07T11:17:02;2.47;;;2.10;;
7003;SDS011;3542;48.812;9.146;2023-05-07T11:25:04;2.70;;;1.93;;
7003;SDS011;3542;48.812;9.146;2023-05-07T11:27:31;3.73;;;2.80;;
7003;SDS011;3542;48.812;9.146;2023-05-07T11:29:57;2.40;;;2.30;;
7003;SDS011;3542;48.812;9.146;2023-05-07T11:32:24;7.63;;;2.20;;
7003;SDS011;3542;48.812;9.146;2023-05-07T11:34:53;2.37;;;2.13;;
7003;SDS011;3542;48.812;9.146;2023-05-07T11:37:20;2.90;;;2.70;;
7003;SDS011;3542;48.812;9.146;2023-05-07T11:39:46;2.30;;;2.20;;
7003;SDS011;3542;48.812;9.146;2023-05-07T11:44:57;2.10;;;1.90;;
7003;SDS011;3542;48.812;9.146;2023-05-07T11:47:23;2.50;;;2.40;;
7003;SDS011;3542;48.812;9.146;2023-05-07T11:49:51;3.00;;;2.37;;
7003;SDS011;3542;48.812;9.146;2023-05-07T11:52:18;3.23;;;2.20;;
7003;SDS011;3542;48.812;9.146;2023-05-07T11:54:52;1.90;;;1.80;;
7003;SDS011;3542;48.812;9.146;2023-05-07T11:57:19;3.90;;;2.13;;
7003;SDS011;3542;48.812;9.146;2023-05-07T11:59:45;3.37;;;2.30;;
7003;SDS011;3542;48.812;9.146;2023-05-07T12:02:13;2.30;;;1.83;;
7003;SDS011;3542;48.812;9.146;2023-05-07T12:04:40;2.67;;;2.10;;
7003;SDS011;3542;48.812;9.146;2023-05-07T12:07:06;2.10;;;1.73;;
7003;SDS011;3542;48.812;9.146;2023-05-07T12:09:42;2.87;;;2.57;;
7003;SDS011;3542;48.812;9.146;2023-05-07T12:12:08;3.00;;;2.10;;
7003;SDS011;3542;48.812;9.146;2023-05-07T12:14:37;3.23;;;2.33;;
7003;SDS011;3542;48.812;9.146;2023-05-07T12:17:04;2.77;;;2.57;;
7003;SDS011;3542;48.812;9.146;2023-05-07T12:19:30;2.60;;;2.40;;
7003;SDS011;3542;48.812;9.146;2023-05-07T12:21:56;3.57;;;2.40;;
7003;SDS011;3542;48.812;9.146;2023-05-07T12:24:22;3.00;;;2.70;;
7003;SDS011;3542;48.812;9.146;2023-05-07T12:26:48;10.33;;;2.67;;
7003;SDS011;3542;48.812;9.146;2023-05-07T12:29:14;4.10;;;2.90;;
7003;SDS011;3542;48.812;9.146;2023-05-07T12:31:42;2.10;;;2.00;;
7003;SDS011;3542;48.812;9.146;2023-05-07T12:34:10;2.83;;;2.63;;
7003;SDS011;3542;48.812;9.146;2023-05-07T12:36:37;3.87;;;2.40;;
7003;SDS011;3542;48.812;9.146;2023-05-07T12:39:04;3.30;;;2.30;;
7003;SDS011;3542;48.812;9.146;2023-05-07T12:41:30;2.17;;;2.00;;
7003;SDS011;3542;48.812;9.146;2023-05-07T12:44:16;4.23;;;2.50;;
7003;SDS011;3542;48.812;9.146;2023-05-07T12:46:42;2.30;;;2.20;;
7003;SDS011;3542;48.812;9.146;2023-05-07T12:49:07;2.30;;;1.90;;
7003;SDS011;3542;48.812;9.146;2023-05-07T12:51:34;3.70;;;2.60;;
7003;SDS011;3542;48.812;9.146;2023-05-07T12:54:00;2.83;;;2.07;;
7003;SDS011;3542;48.812;9.146;2023-05-07T12:56:26;2.90;;;2.07;;
7003;SDS011;3542;48.812;9.146;2023-05-07T12:58:51;3.70;;;2.20;;
7003;SDS011;3542;48.812;9.146;2023-05-07T13:01:21;7.97;;;2.47;;
7003;SDS011;3542;48.812;9.146;2023-05-07T13:03:48;8.73;;;2.30;;
7003;SDS011;3542;48.812;9.146;2023-05-07T13:06:17;2.83;;;1.50;;
7003;SDS011;3542;48.812;9.146;2023-05-07T13:08:42;2.73;;;1.47;;
7003;SDS011;3542;48.812;9.146;2023-05-07T13:11:08;5.40;;;2.27;;
7003;SDS011;3542;48.812;9.146;2023-05-07T13:13:35;4.10;;;2.00;;
7003;SDS011;3542;48.812;9.146;2023-05-07T13:16:03;4.10;;;2.50;;
7003;SDS011;3542;48.812;9.146;2023-05-07T13:18:29;2.90;;;2.57;;
7003;SDS011;3542;48.812;9.146;2023-05-07T13:20:56;4.30;;;2.73;;
7003;SDS011;3542;48.812;9.146;2023-05-07T13:23:21;4.93;;;3.70;;
7003;SDS011;3542;48.812;9.146;2023-05-07T13:25:47;3.27;;;2.30;;
7003;SDS011;3542;48.812;9.146;2023-05-07T13:28:14;6.40;;;2.67;;
7003;SDS011;3542;48.812;9.146;2023-05-07T13:30:40;7.03;;;2.50;;
7003;SDS011;3542;48.812;9.146;2023-05-07T13:33:08;8.97;;;2.63;;
7003;SDS011;3542;48.812;9.146;2023-05-07T13:35:34;4.27;;;1.77;;
7003;SDS011;3542;48.812;9.146;2023-05-07T13:38:00;6.13;;;2.07;;
7003;SDS011;3542;48.812;9.146;2023-05-07T13:40:25;2.50;;;1.90;;
7003;SDS011;3542;48.812;9.146;2023-05-07T13:42:51;2.53;;;2.30;;
7003;SDS011;3542;48.812;9.146;2023-05-07T13:45:19;5.47;;;2.00;;
7003;SDS011;3542;48.812;9.146;2023-05-07T13:47:45;1.50;;;1.40;;
7003;SDS011;3542;48.812;9.146;2023-05-07T13:50:11;1.80;;;1.63;;
7003;SDS011;3542;48.812;9.146;2023-05-07T13:52:41;1.87;;;1.77;;
7003;SDS011;3542;48.812;9.146;2023-05-07T13:55:08;1.50;;;1.23;;
7003;SDS011;3542;48.812;9.146;2023-05-07T13:57:35;1.73;;;1.63;;
7003;SDS011;3542;48.812;9.146;2023-05-07T14:00:02;1.80;;;1.70;;
7003;SDS011;3542;48.812;9.146;2023-05-07T14:02:29;2.20;;;2.03;;
7003;SDS011;3542;48.812;9.146;2023-05-07T14:04:56;4.30;;;1.70;;
7003;SDS011;3542;48.812;9.146;2023-05-07T14:07:22;2.97;;;1.80;;
7003;SDS011;3542;48.812;9.146;2023-05-07T14:09:53;2.10;;;1.90;;
7003;SDS011;3542;48.812;9.146;2023-05-07T14:12:20;2.50;;;1.77;;
7003;SDS011;3542;48.812;9.146;2023-05-07T14:14:46;3.70;;;1.47;;
7003;SDS011;3542;48.812;9.146;2023-05-07T14:17:12;1.73;;;1.57;;
7003;SDS011;3542;48.812;9.146;2023-05-07T14:19:38;4.30;;;1.57;;
7003;SDS011;3542;48.812;9.146;2023-05-07T14:22:04;1.67;;;1.57;;
7003;SDS011;3542;48.812;9.146;2023-05-07T14:24:30;3.10;;;1.70;;
7003;SDS011;3542;48.812;9.146;2023-05-07T14:26:55;1.87;;;1.50;;
7003;SDS011;3542;48.812;9.146;2023-05-07T14:29:21;2.27;;;1.90;;
7003;SDS011;3542;48.812;9.146;2023-05-07T14:34:35;1.80;;;1.60;;
7003;SDS011;3542;48.812;9.146;2023-05-07T14:37:01;2.50;;;1.90;;
7003;SDS011;3542;48.812;9.146;2023-05-07T14:39:35;2.80;;;2.30;;
7003;SDS011;3542;48.812;9.146;2023-05-07T14:42:01;2.30;;;2.20;;
7003;SDS011;3542;48.812;9.146;2023-05-07T14:44:26;4.50;;;1.93;;
7003;SDS011;3542;48.812;9.146;2023-05-07T14:46:52;2.20;;;2.03;;
7003;SDS011;3542;48.812;9.146;2023-05-07T14:49:18;3.40;;;2.23;;
7003;SDS011;3542;48.812;9.146;2023-05-07T14:51:45;3.10;;;2.63;;
7003;SDS011;3542;48.812;9.146;2023-05-07T14:54:11;3.97;;;2.30;;
7003;SDS011;3542;48.812;9.146;2023-05-07T14:56:38;2.40;;;2.30;;
7003;SDS011;3542;48.812;9.146;2023-05-07T14:59:05;3.33;;;2.17;;
7003;SDS011;3542;48.812;9.146;2023-05-07T15:01:31;3.37;;;2.43;;
7003;SDS011;3542;48.812;9.146;2023-05-07T15:03:59;3.33;;;2.33;;
7003;SDS011;3542;48.812;9.146;2023-05-07T15:06:25;2.30;;;2.10;;
7003;SDS011;3542;48.812;9.146;2023-05-07T15:08:51;3.77;;;2.80;;
7003;SDS011;3542;48.812;9.146;2023-05-07T15:11:17;4.83;;;3.17;;
7003;SDS011;3542;48.812;9.146;2023-05-07T15:13:43;2.53;;;2.17;;
7003;SDS011;3542;48.812;9.146;2023-05-07T15:16:09;1.97;;;1.80;;
7003;SDS011;3542;48.812;9.146;2023-05-07T15:18:35;1.87;;;1.77;;
7003;SDS011;3542;48.812;9.146;2023-05-07T15:21:01;2.37;;;2.17;;
7003;SDS011;3542;48.812;9.146;2023-05-07T15:23:27;3.20;;;1.77;;
7003;SDS011;3542;48.812;9.146;2023-05-07T15:25:53;3.23;;;2.47;;
7003;SDS011;3542;48.812;9.146;2023-05-07T15:28:19;7.20;;;2.13;;
7003;SDS011;3542;48.812;9.146;2023-05-07T15:30:44;2.27;;;2.17;;
7003;SDS011;3542;48.812;9.146;2023-05-07T15:33:11;4.00;;;3.13;;
7003;SDS011;3542;48.812;9.146;2023-05-07T15:35:37;4.97;;;2.43;;
7003;SDS011;3542;48.812;9.146;2023-05-07T15:38:03;3.30;;;3.00;;
7003;SDS011;3542;48.812;9.146;2023-05-07T15:40:30;2.90;;;2.70;;
7003;SDS011;3542;48.812;9.146;2023-05-07T15:42:56;3.03;;;2.30;;
7003;SDS011;3542;48.812;9.146;2023-05-07T15:45:22;2.57;;;2.37;;
7003;SDS011;3542;48.812;9.146;2023-05-07T15:47:49;3.40;;;3.03;;
7003;SDS011;3542;48.812;9.146;2023-05-07T15:50:14;3.50;;;2.80;;
7003;SDS011;3542;48.812;9.146;2023-05-07T15:52:40;3.90;;;3.20;;
7003;SDS011;3542;48.812;9.146;2023-05-07T15:55:06;2.83;;;2.63;;
7003;SDS011;3542;48.812;9.146;2023-05-07T15:57:34;3.70;;;3.40;;
7003;SDS011;3542;48.812;9.146;2023-05-07T16:00:00;6.00;;;4.43;;
7003;SDS011;3542;48.812;9.146;2023-05-07T16:02:28;4.87;;;4.10;;
7003;SDS011;3542;48.812;9.146;2023-05-07T16:04:53;5.43;;;4.23;;
7003;SDS011;3542;48.812;9.146;2023-05-07T16:07:19;4.50;;;3.80;;
7003;SDS011;3542;48.812;9.146;2023-05-07T16:09:46;3.93;;;3.23;;
7003;SDS011;3542;48.812;9.146;2023-05-07T16:12:12;3.37;;;3.17;;
7003;SDS011;3542;48.812;9.146;2023-05-07T16:14:38;6.20;;;2.87;;
7003;SDS011;3542;48.812;9.146;2023-05-07T16:17:04;3.53;;;3.23;;
7003;SDS011;3542;48.812;9.146;2023-05-07T16:19:29;3.63;;;3.33;;
7003;SDS011;3542;48.812;9.146;2023-05-07T16:21:55;4.77;;;3.60;;
7003;SDS011;3542;48.812;9.146;2023-05-07T16:24:21;5.43;;;3.70;;
7003;SDS011;3542;48.812;9.146;2023-05-07T16:26:47;4.63;;;4.00;;
7003;SDS011;3542;48.812;9.146;2023-05-07T16:29:13;6.13;;;4.97;;
7003;SDS011;3542;48.812;9.146;2023-05-07T16:31:40;7.23;;;3.90;;
7003;SDS011;3542;48.812;9.146;2023-05-07T16:34:06;3.50;;;3.20;;
7003;SDS011;3542;48.812;9.146;2023-05-07T16:36:32;4.27;;;3.90;;
7003;SDS011;3542;48.812;9.146;2023-05-07T16:38:57;5.30;;;3.37;;
7003;SDS011;3542;48.812;9.146;2023-05-07T16:41:23;4.80;;;3.23;;
7003;SDS011;3542;48.812;9.146;2023-05-07T16:43:49;3.80;;;3.60;;
7003;SDS011;3542;48.812;9.146;2023-05-07T16:46:15;5.30;;;3.43;;
7003;SDS011;3542;48.812;9.146;2023-05-07T16:48:41;3.70;;;3.40;;
7003;SDS011;3542;48.812;9.146;2023-05-07T16:51:06;5.30;;;4.47;;
7003;SDS011;3542;48.812;9.146;2023-05-07T16:53:32;5.67;;;3.33;;
7003;SDS011;3542;48.812;9.146;2023-05-07T16:56:00;4.43;;;3.70;;
7003;SDS011;3542;48.812;9.146;2023-05-07T16:58:28;6.80;;;3.90;;
7003;SDS011;3542;48.812;9.146;2023-05-07T17:00:54;4.40;;;4.03;;